Historyczne dane pomiarowe

Dodano dane terminowe – wersja testowa.

Dane z okresu 1951-2019

Wersja bazy: 1.34 [2019-03-16, lista zmian], aktualizacja planowana na 2019-04-15

Dane meteo z obszaru Polski uzyskane na podstawie danych udostępnionych przez Instytut Meteorologii i Gospodarki Wodnej – Państwowy Instytut Badawczy.

 

Wybierz Datę:    

       

TemperaturaWilgotnośćWiatrCiśnienieOpadyŚniegCzas trwania zjawisk
 Stacja t tx tn tng RH VA  wxwx mslp ppp RRR   cm mm wxwxwxwxwxwxwx
1999-08-14 15.0 22.5 7.4 4.6-- 2.3 0.7---- 3.0------------
1999-08-13 14.8 18.5 9.7 6.7-- 6.3 1.0---- 0.7------------
1999-08-12 15.1 19.9 9.7 6.4-- 6.3 2.7---- 0.0------------
1999-08-11 18.8 23.3 15.2 12.6-- 6.7 2.7---- 1.0------------
1999-08-10 20.8 25.2 15.9 13.3-- 5.7 0.7---- 0.0------------
1999-08-09 20.3 26.3 15.1 13.1-- 3.7 1.0---- 0.1------------
1999-08-08 22.4 28.7 16.9 15.4-- 3.0 0.7---- 1.1------------
1999-08-07 20.9 29.9 10.2 8.3-- 3.3 0.3---- 17.1------------
1999-08-06 22.3 28.5 16.2 13.3-- 4.0 1.3---- 0.0------------
1999-08-05 19.9 28.2 10.3 8.3-- 5.7 0.7---- 0.0------------
1999-08-04 18.9 28.2 8.2 5.8-- 0.7 0.7---- 0.0------------
1999-08-03 19.2 27.2 8.6 6.0-- 1.3 1.0---- 0.0------------
1999-08-02 20.3 26.7 12.8 9.9-- 1.3 1.7---- 0.0------------
1999-08-01 20.6 27.3 14.1 11.4-- 1.3 3.0---- 0.0------------
1999-07-31 21.3 28.2 14.2 10.7-- 2.0 3.7---- 0.0------------
1999-07-30 20.1 26.2 12.5 8.7-- 2.0 1.3---- 0.0------------
1999-07-29 19.3 25.7 11.8 9.8-- 1.3 3.7---- 0.0------------
1999-07-28 18.6 25.1 10.0 6.6-- 1.3 2.0---- 0.0------------
1999-07-27 17.7 22.7 11.4 9.9-- 0.0 3.0---- 0.0------------
1999-07-26 20.5 26.5 16.6 15.7-- 4.7 2.7---- 0.0------------
1999-07-25 20.9 26.2 14.5 11.9-- 4.7 1.0---- 0.0------------
1999-07-24 17.2 20.6 13.7 13.6-- 7.7 2.0---- 0.0------------
1999-07-23 15.2 19.0 10.3 8.3-- 5.0 1.3---- 0.2------------
1999-07-22 18.2 22.2 14.4 11.3-- 2.7 2.0---- 0.0------------
1999-07-21 21.8 27.5 16.3 12.9-- 3.3 2.7---- 0.2------------
1999-07-20 22.3 31.8 12.8 9.9-- 2.7 1.0---- 0.0------------
1999-07-19 23.1 30.9 13.0 10.2-- 0.7 1.0---- 0.0------------
1999-07-18 21.2 29.1 11.4 8.8-- 0.0 0.7---- 0.0------------
1999-07-17 18.4 25.2 9.4 6.3-- 3.7 2.3---- 0.0------------
1999-07-16 16.4 22.7 9.8 6.8-- 4.0 1.3---- 0.0------------
1999-07-15 15.9 20.7 12.5 11.2-- 5.3 2.3---- 0.3------------
1999-07-14 21.1 29.3 17.0 14.3-- 7.0 2.0---- 0.2------------
1999-07-13 22.0 28.3 16.3 13.4-- 4.3 1.7---- 0.1------------
1999-07-12 22.1 28.9 15.6 14.2-- 3.7 2.3---- 0.1------------
1999-07-11 20.8 26.7 13.2 11.3-- 5.0 5.3---- 0.0------------
1999-07-10 20.9 26.3 13.9 12.8-- 0.7 6.3---- 0.0------------
1999-07-09 19.7 24.9 15.4 15.3-- 4.3 7.3---- 0.0------------
1999-07-08 17.2 19.0 15.4 14.8-- 8.0 2.0---- 3.2------------
1999-07-07 18.4 22.2 15.8 15.8-- 7.3 1.7---- 0.0------------
1999-07-06 22.8 27.2 18.6 15.9-- 5.3 2.0---- 6.1------------
1999-07-05 24.6 32.1 16.7 14.5-- 2.7 3.3---- 0.0------------
1999-07-04 22.1 30.2 15.6 12.4-- 0.7 2.0---- 8.0------------
1999-07-03 20.8 26.7 13.1 10.7-- 0.7 1.0---- 0.0------------
1999-07-02 18.2 22.8 14.3 12.3-- 6.3 1.0---- 0.0------------
1999-07-01 19.2 23.2 16.0 15.3-- 5.0 0.7---- 1.4------------
1999-06-30 19.2 26.5 10.7 8.8-- 4.7 1.0---- 7.6------------
1999-06-29 18.1 23.2 10.6 7.7-- 2.3 0.7---- 0.0------------
1999-06-28 19.7 26.3 13.1 10.4-- 5.0 2.7---- 0.0------------
1999-06-27 20.0 24.3 14.5 9.8-- 2.7 3.0---- 0.0------------
1999-06-26 13.8 20.1 4.5 3.1-- 0.3 1.3---- 0.0------------
1999-06-25 13.4 17.7 8.1 6.0-- 6.3 0.7---- 0.0------------
1999-06-24 12.4 18.1 4.5 2.5-- 4.3 0.7---- 0.3------------
1999-06-23 13.6 17.3 9.8 9.5-- 5.7 2.7---- 0.0------------
1999-06-22 11.8 13.7 10.4 8.3-- 7.7 3.7---- 10.5------------
1999-06-21 15.1 20.4 10.0 12.8-- 5.3 1.0---- 0.3------------
1999-06-20 17.2 21.9 12.0 10.1-- 5.3 1.0---- 0.0------------
1999-06-19 16.2 19.6 13.0 12.8-- 7.0 0.3---- 0.0------------
1999-06-18 16.2 20.7 11.6 9.6-- 7.3 1.7---- 28.5------------
1999-06-17 18.0 21.4 12.3 9.8-- 7.0 0.7---- 0.0------------
1999-06-16 17.3 21.1 12.2 11.7-- 4.3 1.7---- 0.0------------
280.3 ms

 

Źródłem pochodzenia danych jest Instytut Meteorologii i Gospodarki Wodnej – Państwowy Instytut Badawczy. Dane Instytutu Meteorologii i Gospodarki Wodnej – Państwowego Instytutu Badawczego zostały przetworzone.

Dane źródłowe można odnaleźć na stronie https://dane.imgw.pl